Mossel Bay, South Africa

12:07 PM SAST on October 02, 2014 (GMT +0200)
IWESTERN176 | Change Station
CLOSE
Current Station
Personal Weather Station
Location: George, WESTERN CAPE
Elevation: 784 ft
Nearby Weather Stations

Elev 784 ft 33.96 °S, 22.47 °E | Updated 2 minutes ago

Partly Cloudy
Partly Cloudy
68.1 °F
Feels Like 68.1 °F
N
6.8
Wind Variable Wind from ENE
Gusts 7.4 mph

Today
High -- | Low -- °F
--% Chance of Precip.
Yesterday
High -- | Low -- °F
Precip. -- in
6:07 AM 6:35 PM
First Quarter, 57% visible
Pressure 30.24 in
Visibility 6.2 miles
Clouds Few 2000 ft
Dew Point 55 °F
Humidity 63%
Rainfall 0.00 in
Snow Depth Not available.
UV 11 out of 12
Pollen Not available.
Air Quality Not available.
Flu Activity Not available.
METAR FAGG 021000Z 13010KT 100V170 9999 FEW020 18/13 Q1024

More Conditions Fewer Conditions

Pressure 30.24 in
Visibility 6.2 miles
Clouds Few 2000 ft
Dew Point 55 °F
Humidity 63%
Rainfall 0.00 in
Snow Depth Not available.
UV 11 out of 12
Pollen Not available.
Air Quality Not available.
Flu Activity Not available.
METAR FAGG 021000Z 13010KT 100V170 9999 FEW020 18/13 Q1024

More Conditions Fewer Conditions

10-Day Weather Forecast

Almanac

Astronomy

Oct. 02, 2014 Rise Set
Actual Time 6:07 AM SAST 6:35 PM SAST
Civil Twilight 5:42 AM SAST 7:00 PM SAST
Nautical Twilight 5:12 AM SAST 7:29 PM SAST
Astronomical Twilight 4:42 AM SAST 7:59 PM SAST
Moon 12:11 PM SAST 1:24 AM SAST
Length of Visible Light 13h 17m
Length of Day
12h 27m
Tomorrow will be 2m 7s longer.
First Quarter, 57% of the Moon is Illuminated
Today
First Quarter
Oct 8
Full
Oct 15
Last Quarter
Oct 23
New
Oct 30
First Quarter

Yesterday's Extremes

Country Highs Country Lows

Community

WunderPhotos

Upload Photos

1,758,209 photos uploaded!

WunderBlogs® & News

Nearby

Snow Depth

Not available.

Earthquake Activity

City Distance Mag. Time & Date
No recent earthquake activity has been reported nearby.
Minimum magnitude displayed is 2.5.

Coastal Water Temperatures

Place Temperature
No Stations Reporting

Nearby Weather Stations